createdAt,value
2022-10-08T00:04:03.434Z,11.57
2022-10-08T00:09:06.491Z,10.30
2022-10-08T00:14:09.239Z,7.80
2022-10-08T00:19:12.219Z,7.35
2022-10-08T00:24:15.116Z,12.55
2022-10-08T00:29:17.608Z,7.13
2022-10-08T00:34:23.422Z,10.70
2022-10-08T00:39:25.010Z,8.30
2022-10-08T00:44:46.935Z,8.20
2022-10-08T00:49:49.245Z,10.40
2022-10-08T00:54:51.875Z,8.70
2022-10-08T00:59:53.213Z,8.18
2022-10-08T01:04:54.696Z,7.95
2022-10-08T01:10:01.174Z,5.40
2022-10-08T01:15:08.821Z,10.30
2022-10-08T01:20:10.932Z,6.68
2022-10-08T01:25:31.268Z,8.15
2022-10-08T01:30:33.822Z,10.57
2022-10-08T01:35:37.798Z,11.65
2022-10-08T01:40:41.011Z,10.07
2022-10-08T01:45:47.711Z,6.70
2022-10-08T01:51:03.027Z,9.93
2022-10-08T01:56:05.293Z,9.45
2022-10-08T02:01:14.058Z,7.85
2022-10-08T02:06:15.522Z,14.27
2022-10-08T02:11:16.854Z,7.88
2022-10-08T02:16:25.601Z,9.88
2022-10-08T02:21:29.954Z,7.57
2022-10-08T02:26:33.543Z,8.00
2022-10-08T02:31:40.856Z,6.32
2022-10-08T02:36:45.283Z,8.20
2022-10-08T02:41:49.170Z,10.00
2022-10-08T02:46:52.336Z,9.30
2022-10-08T02:51:54.587Z,11.38
2022-10-08T02:56:58.069Z,11.77
2022-10-08T03:02:02.998Z,8.60
2022-10-08T03:07:04.921Z,8.65
2022-10-08T03:12:06.827Z,10.93
2022-10-08T03:17:08.674Z,8.25
2022-10-08T03:22:10.877Z,11.23
2022-10-08T03:27:12.939Z,10.02
2022-10-08T03:32:14.407Z,8.38
2022-10-08T03:37:15.798Z,12.27
2022-10-08T03:42:17.340Z,13.27
2022-10-08T03:47:18.728Z,8.70
2022-10-08T03:52:20.075Z,9.48
2022-10-08T03:57:21.474Z,14.02
2022-10-08T04:02:22.902Z,9.93
2022-10-08T04:07:24.319Z,9.02
2022-10-08T04:12:25.627Z,9.70
2022-10-08T04:17:26.983Z,12.43
2022-10-08T04:22:28.299Z,9.80
2022-10-08T04:27:29.609Z,13.43
2022-10-08T04:32:31.000Z,7.38
2022-10-08T04:37:32.381Z,9.23
2022-10-08T04:42:33.760Z,10.52
2022-10-08T04:47:35.171Z,9.77
2022-10-08T04:52:36.530Z,9.93
2022-10-08T04:57:38.081Z,14.40
2022-10-08T05:02:39.424Z,7.55
2022-10-08T05:07:40.890Z,10.45
2022-10-08T05:12:42.277Z,11.05
2022-10-08T05:17:43.845Z,10.60
2022-10-08T05:22:45.572Z,11.57
2022-10-08T05:27:47.141Z,8.82
2022-10-08T05:32:49.164Z,14.00
2022-10-08T05:37:51.048Z,8.80
2022-10-08T05:42:52.482Z,10.98
2022-10-08T05:47:54.054Z,10.75
2022-10-08T05:52:55.561Z,11.65
2022-10-08T05:57:57.057Z,10.52
2022-10-08T06:02:58.667Z,11.57
2022-10-08T06:08:00.147Z,11.15
2022-10-08T06:13:01.603Z,14.05
2022-10-08T06:18:03.190Z,12.25
2022-10-08T06:23:11.216Z,8.65
2022-10-08T06:28:13.032Z,10.75
2022-10-08T06:33:16.867Z,10.25
2022-10-08T06:38:18.677Z,11.55
2022-10-08T06:43:20.401Z,13.18
2022-10-08T06:48:22.268Z,10.00
2022-10-08T06:53:23.615Z,11.75
2022-10-08T06:58:25.259Z,10.32
2022-10-08T07:03:26.684Z,12.25
2022-10-08T07:08:28.758Z,9.30
2022-10-08T07:13:30.148Z,10.88
2022-10-08T07:18:33.117Z,9.32
2022-10-08T07:23:34.882Z,8.85
2022-10-08T07:28:37.581Z,9.82
2022-10-08T07:33:40.777Z,13.55
2022-10-08T07:38:42.501Z,9.23
2022-10-08T07:43:44.005Z,9.63
2022-10-08T07:48:45.504Z,8.82
2022-10-08T07:53:47.069Z,14.00
2022-10-08T07:58:48.831Z,10.70
2022-10-08T08:03:55.178Z,11.80
2022-10-08T08:08:56.902Z,13.23
2022-10-08T08:13:58.355Z,10.15
2022-10-08T08:19:00.541Z,11.95
2022-10-08T08:24:09.562Z,10.60
2022-10-08T08:29:12.436Z,14.37
2022-10-08T08:34:18.645Z,8.00
2022-10-08T08:39:21.811Z,14.40
2022-10-08T08:44:29.551Z,11.57
2022-10-08T08:49:34.795Z,11.38
2022-10-08T08:54:36.501Z,9.48
2022-10-08T08:59:41.543Z,6.22
2022-10-08T09:04:45.621Z,13.90
2022-10-08T09:09:48.619Z,7.72
2022-10-08T09:14:53.002Z,10.52
2022-10-08T09:19:54.598Z,12.35
2022-10-08T09:25:06.517Z,13.15
2022-10-08T09:30:26.181Z,11.10
2022-10-08T09:35:28.204Z,11.32
2022-10-08T09:40:31.574Z,17.65
2022-10-08T09:45:41.252Z,16.88
2022-10-08T09:55:52.250Z,12.70
2022-10-08T10:05:56.106Z,12.05
2022-10-08T10:10:57.624Z,10.27
2022-10-08T10:16:00.016Z,14.52
2022-10-08T10:21:03.109Z,12.93
2022-10-08T10:26:11.433Z,12.98
2022-10-08T10:31:16.186Z,10.85
2022-10-08T10:36:18.144Z,8.98
2022-10-08T10:41:25.253Z,7.55
2022-10-08T10:46:49.616Z,11.55
2022-10-08T10:51:54.412Z,13.95
2022-10-08T10:57:03.409Z,10.25
2022-10-08T11:02:15.264Z,12.05
2022-10-08T11:07:16.613Z,13.30
2022-10-08T11:12:18.015Z,9.82
2022-10-08T11:17:22.374Z,12.25
2022-10-08T11:22:26.648Z,13.18
2022-10-08T11:27:30.768Z,14.13
2022-10-08T11:32:32.513Z,16.08
2022-10-08T11:37:33.809Z,13.60
2022-10-08T11:42:55.782Z,10.57
2022-10-08T11:47:59.026Z,9.05
2022-10-08T11:53:14.250Z,10.43
2022-10-08T11:58:23.607Z,10.38
2022-10-08T12:03:30.470Z,9.25
2022-10-08T12:08:49.911Z,13.25
2022-10-08T12:14:09.904Z,9.52
2022-10-08T12:24:38.623Z,10.02
2022-10-08T12:29:52.382Z,12.18
2022-10-08T12:34:54.172Z,11.88
2022-10-08T12:39:55.789Z,10.98
2022-10-08T12:45:05.124Z,12.93
2022-10-08T12:50:24.888Z,9.15
2022-10-08T12:55:26.734Z,11.27
2022-10-08T13:00:32.967Z,10.18
2022-10-08T13:05:34.382Z,9.88
2022-10-08T13:10:35.745Z,11.15
2022-10-08T13:15:37.069Z,13.80
2022-10-08T13:20:38.454Z,10.63
2022-10-08T13:25:41.473Z,12.52
2022-10-08T13:30:44.651Z,14.20
2022-10-08T13:35:57.386Z,9.23
2022-10-08T13:41:00.097Z,9.32
2022-10-08T13:46:01.631Z,10.18
2022-10-08T13:51:03.779Z,9.77
2022-10-08T13:56:05.591Z,9.55
2022-10-08T14:01:07.108Z,10.00
2022-10-08T14:06:08.524Z,12.50
2022-10-08T14:11:10.892Z,11.70
2022-10-08T14:16:13.136Z,8.82
2022-10-08T14:21:16.712Z,10.55
2022-10-08T14:26:18.370Z,12.43
2022-10-08T14:31:20.862Z,10.63
2022-10-08T14:36:33.113Z,9.02
2022-10-08T14:41:34.559Z,9.32
2022-10-08T14:46:35.986Z,11.10
2022-10-08T14:51:39.122Z,12.13
2022-10-08T14:56:42.708Z,9.80
2022-10-08T15:01:46.045Z,11.25
2022-10-08T15:06:47.567Z,6.93
2022-10-08T15:11:50.106Z,11.05
2022-10-08T15:16:51.635Z,10.45
2022-10-08T15:21:53.956Z,11.52
2022-10-08T15:26:55.756Z,12.80
2022-10-08T15:31:57.216Z,9.82
2022-10-08T15:36:58.661Z,10.10
2022-10-08T15:42:00.135Z,7.55
2022-10-08T15:47:04.499Z,10.20
2022-10-08T15:52:07.559Z,6.22
2022-10-08T15:57:10.033Z,7.22
2022-10-08T16:02:16.683Z,14.48
2022-10-08T16:07:19.445Z,10.90
2022-10-08T16:12:20.809Z,7.93
2022-10-08T16:17:22.182Z,9.95
2022-10-08T16:22:23.543Z,8.15
2022-10-08T16:27:24.990Z,9.32
2022-10-08T16:32:26.485Z,9.82
2022-10-08T16:37:27.883Z,11.98
2022-10-08T16:42:29.638Z,10.70
2022-10-08T16:47:31.206Z,9.93
2022-10-08T16:52:32.573Z,7.70
2022-10-08T16:57:34.958Z,8.23
2022-10-08T17:02:36.374Z,8.23
2022-10-08T17:07:37.781Z,9.02
2022-10-08T17:12:39.716Z,9.63
2022-10-08T17:17:41.222Z,8.88
2022-10-08T17:22:42.597Z,7.15
2022-10-08T17:27:44.007Z,9.13
2022-10-08T17:32:45.734Z,13.65
2022-10-08T17:37:47.422Z,11.55
2022-10-08T17:42:49.247Z,9.73
2022-10-08T17:47:51.137Z,11.45
2022-10-08T17:52:52.523Z,7.05
2022-10-08T17:57:53.906Z,12.25
2022-10-08T18:02:55.413Z,12.80
2022-10-08T18:07:56.840Z,14.25
2022-10-08T18:12:58.361Z,9.35
2022-10-08T18:17:59.807Z,9.18
2022-10-08T18:23:01.260Z,10.32
2022-10-08T18:28:02.787Z,7.10
2022-10-08T18:33:06.209Z,9.93
2022-10-08T18:38:07.658Z,10.18
2022-10-08T18:43:09.145Z,10.48
2022-10-08T18:48:10.558Z,10.02
2022-10-08T18:53:12.013Z,9.88
2022-10-08T18:58:13.376Z,10.57
2022-10-08T19:03:14.777Z,11.73
2022-10-08T19:08:16.250Z,9.32
2022-10-08T19:13:17.708Z,6.63
2022-10-08T19:18:19.168Z,9.32
2022-10-08T19:23:20.555Z,12.57
2022-10-08T19:28:22.097Z,11.23
2022-10-08T19:33:23.704Z,10.43
2022-10-08T19:38:25.165Z,12.63
2022-10-08T19:43:26.608Z,9.65
2022-10-08T19:48:28.179Z,11.57
2022-10-08T19:53:29.564Z,10.20
2022-10-08T19:58:31.115Z,9.73
2022-10-08T20:03:35.777Z,9.98
2022-10-08T20:08:37.484Z,9.25
2022-10-08T20:13:40.087Z,9.07
2022-10-08T20:18:41.631Z,9.63
2022-10-08T20:23:44.134Z,10.85
2022-10-08T20:28:46.831Z,8.55
2022-10-08T20:33:48.821Z,12.63
2022-10-08T20:38:50.525Z,9.98
2022-10-08T20:43:52.693Z,11.63
2022-10-08T20:48:54.877Z,9.20
2022-10-08T20:53:57.358Z,8.77
2022-10-08T20:58:59.152Z,12.18
2022-10-08T21:04:00.703Z,10.40
2022-10-08T21:09:02.152Z,8.63
2022-10-08T21:14:06.601Z,8.80
2022-10-08T21:19:10.855Z,9.77
2022-10-08T21:24:12.271Z,8.48
2022-10-08T21:29:14.500Z,10.05
2022-10-08T21:34:16.126Z,11.63
2022-10-08T21:39:17.721Z,14.10
2022-10-08T21:44:19.186Z,10.18
2022-10-08T21:49:20.694Z,10.52
2022-10-08T21:54:22.085Z,11.02
2022-10-08T21:59:23.479Z,10.85
2022-10-08T22:04:25.379Z,14.13
2022-10-08T22:09:27.781Z,15.43
2022-10-08T22:14:29.629Z,18.98
2022-10-08T22:19:31.020Z,18.00
2022-10-08T22:24:32.453Z,20.52
2022-10-08T22:29:34.406Z,18.23
2022-10-08T22:34:35.842Z,17.75
2022-10-08T22:39:37.226Z,19.33
2022-10-08T22:44:38.530Z,18.67
2022-10-08T22:49:39.871Z,19.13
2022-10-08T22:54:41.298Z,23.50
2022-10-08T22:59:42.733Z,21.33
2022-10-08T23:04:44.156Z,22.00
2022-10-08T23:09:45.576Z,18.10
2022-10-08T23:14:46.901Z,17.80
2022-10-08T23:19:48.251Z,16.30
2022-10-08T23:24:49.572Z,21.00
2022-10-08T23:29:51.102Z,20.35
2022-10-08T23:34:52.592Z,15.73
2022-10-08T23:39:57.790Z,16.00
2022-10-08T23:44:59.480Z,14.02
2022-10-08T23:50:00.875Z,12.32
2022-10-08T23:55:04.383Z,13.52
